Louisville, Georgia
Current Conditions -  °F | °C
As of 12:55 PM on Thursday 30 Oct 2014 (Local Time) from KOKZ Reporting Station
Clear Clear  
Wind Chill: 20°   Ceiling: Unl
Heat Index: 20°   Visibility: 10mi
Dew Point:   Wind: 3mph
Humidity: 45%   Direction: 30°NNE
Pressure: 30.04"   Gusts: NA
Location:  33°N, 82.41°W
Report Text: KOKZ 301655Z AUTO 03003KT 10SM CLR 20/08 A3004 RMK AO2 T02000078
Loading
Personal Weather Stations






























Interactive Weather Map
Tropical Storm Tracking
New forecast layout! Learn more

10-Day Weather Forecast

Advertisements
Track Severe Weather on mobile